Time;durP1;ratioP1;P1;durP2;ratioP2;P2;SDS_P1;SDS_P2;PMS_P1;PMS_P2;Temp;Humidity;BMP_temperature;BMP_pressure;BME280_temperature;BME280_humidity;BME280_pressure;Samples;Min_cycle;Max_cycle;Signal;HPM_P1;HPM_P2
2021/12/24 05:02:06;;;;;;;6.00;3.40;;;6.70;99.70;;;;;;5011854;28;20640;-59
2021/12/24 05:04:36;;;;;;;8.37;3.47;;;6.70;99.70;;;;;;5011770;28;20609;-60
2021/12/24 05:07:11;;;;;;;8.57;4.00;;;6.80;99.70;;;;;;5011914;28;20441;-60
2021/12/24 05:09:40;;;;;;;8.13;4.03;;;6.80;99.70;;;;;;5011232;28;20479;-60
2021/12/24 05:12:08;;;;;;;7.83;3.50;;;6.80;99.70;;;;;;5011570;28;20487;-63
2021/12/24 05:14:35;;;;;;;7.00;3.60;;;6.80;99.70;;;;;;5011589;28;20472;-66
2021/12/24 05:17:20;;;;;;;7.13;3.60;;;6.80;99.70;;;;;;5011614;28;20449;-60
2021/12/24 05:22:33;;;;;;;6.27;3.57;;;6.80;99.70;;;;;;5011820;28;20413;-59
2021/12/24 05:24:59;;;;;;;6.43;3.57;;;6.80;99.70;;;;;;5011432;28;20895;-61
2021/12/24 05:27:27;;;;;;;7.13;3.70;;;6.80;99.70;;;;;;5011388;28;20445;-61
2021/12/24 05:29:54;;;;;;;7.87;3.80;;;6.80;99.70;;;;;;5011012;28;20465;-60
2021/12/24 05:32:22;;;;;;;5.97;3.43;;;6.80;99.70;;;;;;5011315;28;20445;-62
2021/12/24 05:34:49;;;;;;;6.50;3.23;;;6.90;99.70;;;;;;5010915;28;20454;-60
2021/12/24 05:37:16;;;;;;;6.67;3.70;;;6.90;99.70;;;;;;5011513;28;20453;-58
2021/12/24 05:39:43;;;;;;;7.80;4.37;;;6.90;99.70;;;;;;5010771;28;20477;-62
2021/12/24 05:42:10;;;;;;;7.80;3.60;;;7.00;99.70;;;;;;5011330;28;20449;-60
2021/12/24 05:44:37;;;;;;;7.73;3.80;;;7.00;99.70;;;;;;5011229;28;20822;-60
2021/12/24 05:47:04;;;;;;;6.13;3.50;;;7.00;99.70;;;;;;5011326;28;20452;-61
2021/12/24 05:49:34;;;;;;;6.03;3.43;;;7.00;99.70;;;;;;5010746;28;20535;-59
2021/12/24 05:52:01;;;;;;;7.10;3.60;;;6.90;99.70;;;;;;5011198;28;20544;-60
2021/12/24 05:54:28;;;;;;;6.83;3.63;;;7.00;99.70;;;;;;5011085;28;20488;-62
2021/12/24 05:56:54;;;;;;;7.10;3.80;;;6.90;99.70;;;;;;5011135;28;20862;-60
2021/12/24 05:59:21;;;;;;;7.27;3.97;;;6.90;99.70;;;;;;5014098;28;20481;-61
2021/12/24 06:01:48;;;;;;;9.20;3.60;;;6.90;99.70;;;;;;5014982;28;20797;-59
2021/12/24 06:04:15;;;;;;;6.80;3.70;;;6.90;99.70;;;;;;5014773;28;20441;-57
2021/12/24 06:06:43;;;;;;;7.47;4.27;;;7.00;99.70;;;;;;5014882;28;20445;-59
2021/12/24 06:09:09;;;;;;;8.37;3.73;;;7.10;99.70;;;;;;5014161;28;20846;-59
2021/12/24 06:11:36;;;;;;;8.53;4.13;;;7.10;99.70;;;;;;5014754;28;20447;-61
2021/12/24 06:14:09;;;;;;;7.80;3.43;;;7.10;99.70;;;;;;5014720;28;20492;-59
2021/12/24 06:16:36;;;;;;;8.70;3.93;;;7.10;99.70;;;;;;5014990;28;20446;-58
2021/12/24 06:19:04;;;;;;;7.00;3.60;;;7.20;99.70;;;;;;5014147;28;20457;-62
2021/12/24 06:21:30;;;;;;;8.67;3.70;;;7.10;99.70;;;;;;5014520;28;20449;-59
2021/12/24 06:24:00;;;;;;;6.13;3.60;;;7.10;99.70;;;;;;5014382;28;20803;-64
2021/12/24 06:26:26;;;;;;;11.10;3.90;;;7.10;99.70;;;;;;5014480;28;20492;-57
2021/12/24 06:28:53;;;;;;;7.07;3.60;;;7.10;99.70;;;;;;5014007;28;21015;-59
2021/12/24 06:31:20;;;;;;;7.57;3.70;;;7.00;99.70;;;;;;5014286;28;20445;-62
2021/12/24 06:33:46;;;;;;;8.40;3.93;;;7.10;99.70;;;;;;5014215;28;20485;-60
2021/12/24 06:36:13;;;;;;;6.17;3.67;;;7.10;99.70;;;;;;5013529;28;20946;-59
2021/12/24 06:38:40;;;;;;;7.00;3.60;;;7.10;99.70;;;;;;5013639;28;20473;-62
2021/12/24 06:41:09;;;;;;;10.20;4.10;;;7.10;99.70;;;;;;5014288;28;20441;-57
2021/12/24 06:43:36;;;;;;;8.60;3.80;;;7.10;99.70;;;;;;5014079;28;20437;-60
2021/12/24 06:46:09;;;;;;;7.83;3.63;;;7.20;99.70;;;;;;5014093;28;20449;-60
2021/12/24 06:48:36;;;;;;;11.70;4.00;;;7.20;99.70;;;;;;5013510;28;20496;-65
2021/12/24 06:51:04;;;;;;;9.60;4.37;;;7.30;99.70;;;;;;5013935;28;20874;-59
2021/12/24 06:53:30;;;;;;;7.03;3.53;;;7.30;99.70;;;;;;5014001;28;20893;-59
2021/12/24 06:55:57;;;;;;;7.70;3.97;;;7.30;99.70;;;;;;5013831;28;20449;-65
2021/12/24 06:58:25;;;;;;;6.90;3.77;;;7.20;99.70;;;;;;5013225;28;20477;-63
2021/12/24 07:00:52;;;;;;;7.43;3.83;;;7.20;99.70;;;;;;5013819;28;20445;-61
2021/12/24 07:03:19;;;;;;;9.87;4.20;;;7.20;99.70;;;;;;5014070;28;20433;-61
2021/12/24 07:05:45;;;;;;;8.13;3.80;;;7.20;99.70;;;;;;5013638;28;20442;-61
2021/12/24 07:08:12;;;;;;;8.57;4.23;;;7.20;99.70;;;;;;5013126;28;20465;-64
2021/12/24 07:10:39;;;;;;;10.43;4.07;;;7.30;99.70;;;;;;5012798;28;20445;-60
2021/12/24 07:13:05;;;;;;;7.13;3.90;;;7.30;99.70;;;;;;5013566;28;20515;-60
2021/12/24 07:15:34;;;;;;;8.10;4.17;;;7.30;99.70;;;;;;5013594;28;20457;-59
2021/12/24 07:18:00;;;;;;;8.80;4.30;;;7.30;99.70;;;;;;5012965;28;20454;-62
2021/12/24 07:20:27;;;;;;;7.40;4.07;;;7.30;99.70;;;;;;5013365;28;20891;-61
2021/12/24 07:22:54;;;;;;;7.47;3.67;;;7.40;99.70;;;;;;5013401;28;20453;-58
2021/12/24 07:25:20;;;;;;;7.27;4.13;;;7.30;99.70;;;;;;5013315;28;20834;-58
2021/12/24 07:27:47;;;;;;;8.87;4.33;;;7.30;99.70;;;;;;5012815;28;20449;-60
2021/12/24 07:30:14;;;;;;;10.07;4.53;;;7.30;99.70;;;;;;5013098;28;20834;-58
2021/12/24 07:32:42;;;;;;;9.70;4.10;;;7.50;99.70;;;;;;5013115;28;20445;-58
2021/12/24 07:35:11;;;;;;;8.43;4.37;;;7.40;99.70;;;;;;5012653;28;20473;-57
2021/12/24 07:37:38;;;;;;;11.20;4.93;;;7.40;99.70;;;;;;5012951;28;20449;-68
2021/12/24 07:40:06;;;;;;;9.30;4.43;;;7.40;99.70;;;;;;5011744;28;20465;-60
2021/12/24 07:42:33;;;;;;;9.10;4.13;;;7.30;99.70;;;;;;5013033;28;20473;-58
2021/12/24 07:45:00;;;;;;;8.50;4.53;;;7.30;99.70;;;;;;5012790;28;20541;-59
2021/12/24 07:47:37;;;;;;;12.70;4.30;;;7.30;99.70;;;;;;5011660;28;20449;-60
2021/12/24 07:50:18;;;;;;;8.27;3.90;;;7.40;99.70;;;;;;5012455;28;20469;-57
2021/12/24 07:52:44;;;;;;;10.23;4.10;;;7.40;99.70;;;;;;5012705;28;20460;-60
2021/12/24 07:55:11;;;;;;;9.33;4.57;;;7.40;99.70;;;;;;5010779;28;20519;-60
2021/12/24 07:57:40;;;;;;;7.63;3.67;;;7.40;99.70;;;;;;5000846;28;20457;-58
2021/12/24 08:00:09;;;;;;;8.53;4.17;;;7.40;99.70;;;;;;5005868;28;21185;-58
2021/12/24 08:02:36;;;;;;;9.27;4.30;;;7.40;99.70;;;;;;5012413;28;20446;-60
2021/12/24 08:05:03;;;;;;;7.73;4.30;;;7.40;99.70;;;;;;5012735;28;20438;-60
2021/12/24 08:07:31;;;;;;;6.73;3.70;;;7.40;99.70;;;;;;5011825;28;20885;-61
2021/12/24 08:09:58;;;;;;;8.00;4.20;;;7.40;99.70;;;;;;5011919;28;20512;-62
2021/12/24 08:12:24;;;;;;;9.00;4.20;;;7.40;99.70;;;;;;5011984;28;20484;-60
2021/12/24 08:14:51;;;;;;;6.63;3.73;;;7.40;99.70;;;;;;5011997;28;20500;-61
2021/12/24 08:17:18;;;;;;;7.30;4.00;;;7.30;99.70;;;;;;5011966;28;20453;-63
2021/12/24 08:19:45;;;;;;;7.70;4.30;;;7.40;99.70;;;;;;5010015;28;20481;-59
2021/12/24 08:22:12;;;;;;;8.17;4.13;;;7.30;99.70;;;;;;4990949;28;20443;-60
2021/12/24 08:24:40;;;;;;;6.90;3.97;;;7.30;99.70;;;;;;4995735;28;20446;-64
2021/12/24 08:27:08;;;;;;;8.90;4.30;;;7.40;99.70;;;;;;5011648;28;20449;-62
2021/12/24 08:29:35;;;;;;;9.07;4.23;;;7.40;99.70;;;;;;5011039;28;20476;-61
2021/12/24 08:32:03;;;;;;;8.30;4.07;;;7.40;99.70;;;;;;5012077;28;20446;-62
2021/12/24 08:34:30;;;;;;;9.43;4.40;;;7.40;99.70;;;;;;5011990;28;20927;-62
2021/12/24 08:36:57;;;;;;;8.17;4.10;;;7.40;99.70;;;;;;5006840;28;20694;-65
2021/12/24 08:39:24;;;;;;;8.83;4.40;;;7.50;99.70;;;;;;5010174;28;20983;-60
2021/12/24 08:41:54;;;;;;;8.30;4.37;;;7.50;99.70;;;;;;5011860;28;20492;-60
2021/12/24 08:44:22;;;;;;;10.40;4.47;;;7.50;99.70;;;;;;5012085;28;20541;-60
2021/12/24 08:46:48;;;;;;;8.70;4.20;;;7.50;99.70;;;;;;5011543;28;20445;-60
2021/12/24 08:49:15;;;;;;;8.67;4.23;;;7.50;99.70;;;;;;5011386;28;20465;-60
2021/12/24 08:51:42;;;;;;;7.60;4.07;;;7.50;99.70;;;;;;5005727;28;20890;-63
2021/12/24 08:54:09;;;;;;;6.50;3.60;;;7.60;99.70;;;;;;5001221;28;20490;-60
2021/12/24 08:56:38;;;;;;;8.20;4.00;;;7.60;99.70;;;;;;5000545;28;20492;-60
2021/12/24 08:59:06;;;;;;;9.10;4.20;;;7.60;99.70;;;;;;5012767;28;20487;-63
2021/12/24 09:01:33;;;;;;;11.03;4.00;;;7.70;99.70;;;;;;5017099;28;20524;-65
2021/12/24 09:03:59;;;;;;;10.80;4.23;;;7.70;99.70;;;;;;5009628;28;20473;-60
2021/12/24 09:06:26;;;;;;;10.67;4.60;;;7.70;99.70;;;;;;5009106;28;20446;-59
2021/12/24 09:08:54;;;;;;;9.90;3.93;;;7.70;99.70;;;;;;5007841;28;20462;-57
2021/12/24 09:11:21;;;;;;;7.37;4.00;;;7.70;99.70;;;;;;5008969;28;20457;-61
2021/12/24 09:13:47;;;;;;;7.53;3.80;;;7.70;99.70;;;;;;5008258;28;20484;-64
2021/12/24 09:16:15;;;;;;;9.40;4.13;;;7.80;99.70;;;;;;5009772;28;20503;-60
2021/12/24 09:18:44;;;;;;;6.30;3.50;;;7.80;99.70;;;;;;5007863;28;20477;-61
2021/12/24 09:21:15;;;;;;;9.30;4.00;;;7.70;99.70;;;;;;5009927;28;20453;-59
2021/12/24 09:23:43;;;;;;;8.47;3.80;;;7.60;99.70;;;;;;5008583;28;20457;-60
2021/12/24 09:26:10;;;;;;;8.07;4.13;;;7.60;99.70;;;;;;5009870;28;20457;-63
2021/12/24 09:28:37;;;;;;;7.70;3.90;;;7.70;99.70;;;;;;5007780;28;20470;-59
2021/12/24 09:31:04;;;;;;;9.10;4.47;;;7.60;99.70;;;;;;5009400;28;20480;-59
2021/12/24 09:33:32;;;;;;;7.70;3.90;;;7.60;99.70;;;;;;5011092;28;20442;-61
2021/12/24 09:35:59;;;;;;;8.77;4.23;;;7.60;99.70;;;;;;5006877;28;20453;-61
2021/12/24 09:38:26;;;;;;;9.80;4.13;;;7.70;99.70;;;;;;5007054;28;20466;-61
2021/12/24 09:40:53;;;;;;;9.67;4.27;;;7.60;99.70;;;;;;4996675;28;20454;-59
2021/12/24 09:43:20;;;;;;;10.43;5.00;;;7.60;99.70;;;;;;5007368;28;20472;-62
2021/12/24 09:45:46;;;;;;;9.27;4.50;;;7.70;99.70;;;;;;5010052;28;20857;-59
2021/12/24 09:48:13;;;;;;;9.37;4.50;;;7.70;99.70;;;;;;5009570;28;20571;-66
2021/12/24 09:50:41;;;;;;;9.73;4.50;;;7.60;99.70;;;;;;5008917;28;20837;-62
2021/12/24 09:53:08;;;;;;;11.23;4.73;;;7.60;99.70;;;;;;5004887;28;20457;-63
2021/12/24 09:55:35;;;;;;;8.93;4.50;;;7.50;99.70;;;;;;5022177;28;20510;-62
2021/12/24 09:58:02;;;;;;;9.20;4.70;;;7.50;99.70;;;;;;5023509;28;20437;-62
2021/12/24 10:00:29;;;;;;;10.10;4.60;;;7.50;99.70;;;;;;5011956;28;20445;-63
2021/12/24 10:02:58;;;;;;;8.50;4.43;;;7.60;99.70;;;;;;5009509;28;20970;-63
2021/12/24 10:05:34;;;;;;;9.07;4.20;;;7.50;99.70;;;;;;5011681;28;20441;-64
2021/12/24 10:08:06;;;;;;;7.13;4.10;;;7.50;99.70;;;;;;5016657;28;20452;-61
2021/12/24 10:10:33;;;;;;;8.00;4.20;;;7.60;99.70;;;;;;5025664;28;20459;-64
2021/12/24 10:13:31;;;;;;;9.17;4.77;;;7.50;99.70;;;;;;5034422;28;20455;-63
2021/12/24 10:16:00;;;;;;;10.07;4.40;;;7.60;99.70;;;;;;4961412;28;20502;-63
2021/12/24 10:18:33;;;;;;;8.83;4.33;;;7.60;99.70;;;;;;4994424;28;20470;-62
2021/12/24 10:21:02;;;;;;;8.43;4.30;;;7.60;99.70;;;;;;5011272;28;20441;-64
2021/12/24 10:23:50;;;;;;;11.00;4.40;;;7.60;99.70;;;;;;5022964;28;20969;-63
2021/12/24 10:26:23;;;;;;;8.60;4.77;;;7.60;99.70;;;;;;5034003;28;20444;-63
2021/12/24 10:29:01;;;;;;;11.20;5.20;;;7.60;99.70;;;;;;5025465;28;20492;-63
2021/12/24 10:31:31;;;;;;;12.30;4.87;;;7.60;99.70;;;;;;5025716;28;20437;-63
2021/12/24 10:34:09;;;;;;;13.03;4.70;;;7.50;99.70;;;;;;5033867;28;20463;-62
2021/12/24 10:37:00;;;;;;;10.60;4.60;;;7.50;99.70;;;;;;5033775;28;20444;-64
2021/12/24 10:39:32;;;;;;;8.40;4.80;;;7.60;99.70;;;;;;5033019;28;20526;-61
2021/12/24 10:42:01;;;;;;;10.07;4.83;;;7.70;99.70;;;;;;5033682;28;20869;-63
2021/12/24 10:44:30;;;;;;;8.83;4.80;;;7.60;99.70;;;;;;5032647;28;20524;-63
2021/12/24 10:47:06;;;;;;;7.90;4.03;;;7.60;99.70;;;;;;5033568;28;20441;-66
2021/12/24 10:52:30;;;;;;;7.87;4.30;;;7.60;99.70;;;;;;5015950;28;20441;-58
2021/12/24 10:55:01;;;;;;;9.67;4.63;;;7.70;99.70;;;;;;5013039;28;20484;-57
2021/12/24 10:57:30;;;;;;;8.47;4.27;;;7.70;99.70;;;;;;5015849;28;20457;-59
2021/12/24 10:59:59;;;;;;;11.03;5.17;;;7.70;99.70;;;;;;5022959;28;20480;-58
2021/12/24 11:02:30;;;;;;;9.70;4.40;;;7.70;99.70;;;;;;5013657;28;20472;-59
2021/12/24 11:04:57;;;;;;;9.70;4.80;;;7.70;99.70;;;;;;5017759;28;20460;-63
2021/12/24 11:07:38;;;;;;;13.37;5.37;;;7.70;99.70;;;;;;5024254;28;20440;-65
2021/12/24 11:10:12;;;;;;;10.33;4.70;;;7.70;99.70;;;;;;5027515;28;20465;-63
2021/12/24 11:12:41;;;;;;;13.23;5.13;;;7.60;99.70;;;;;;5033364;28;20507;-64
2021/12/24 11:15:27;;;;;;;10.30;5.20;;;7.60;99.70;;;;;;5032927;28;20996;-63
2021/12/24 11:17:57;;;;;;;11.60;5.37;;;7.70;99.70;;;;;;5025494;28;20453;-61
2021/12/24 11:20:24;;;;;;;14.10;6.10;;;7.60;99.70;;;;;;5010343;28;20450;-62
2021/12/24 11:22:57;;;;;;;12.20;5.10;;;7.70;99.70;;;;;;5022112;28;20441;-64
2021/12/24 11:25:28;;;;;;;15.83;6.20;;;7.70;99.70;;;;;;5022071;28;20445;-64
2021/12/24 11:27:55;;;;;;;16.10;6.53;;;7.70;99.70;;;;;;5011735;28;20457;-64
2021/12/24 11:30:23;;;;;;;9.73;5.37;;;7.70;99.70;;;;;;5013140;28;20445;-64
2021/12/24 11:32:50;;;;;;;14.37;6.03;;;7.70;99.70;;;;;;5010687;28;20445;-63
2021/12/24 11:35:18;;;;;;;15.13;6.60;;;7.70;99.70;;;;;;5016171;28;20484;-64
2021/12/24 11:37:48;;;;;;;14.63;7.37;;;7.70;99.70;;;;;;5023877;28;20440;-61
2021/12/24 11:40:16;;;;;;;13.50;6.40;;;7.70;99.70;;;;;;5022685;28;20457;-64
2021/12/24 11:42:47;;;;;;;12.40;6.00;;;7.70;99.70;;;;;;5011199;28;20818;-63
2021/12/24 11:45:13;;;;;;;9.97;4.37;;;7.70;99.70;;;;;;5012480;28;20465;-63
2021/12/24 11:47:41;;;;;;;9.33;4.97;;;7.70;99.70;;;;;;5012203;28;20442;-61
2021/12/24 11:50:09;;;;;;;8.07;4.30;;;7.70;99.70;;;;;;5013783;28;20990;-64
2021/12/24 11:52:36;;;;;;;9.20;4.57;;;7.70;99.70;;;;;;5012305;28;20461;-64
2021/12/24 11:55:03;;;;;;;9.00;4.80;;;7.80;99.70;;;;;;5010947;28;20473;-64
2021/12/24 11:57:29;;;;;;;12.03;5.50;;;7.80;99.70;;;;;;5000286;28;20975;-64
2021/12/24 11:59:57;;;;;;;9.67;4.97;;;7.80;99.70;;;;;;5006185;28;20484;-64
2021/12/24 12:02:44;;;;;;;8.63;4.73;;;7.80;99.70;;;;;;5005187;28;20954;-64
2021/12/24 12:05:18;;;;;;;8.03;4.33;;;7.90;99.70;;;;;;5000361;28;20429;-64
2021/12/24 12:07:45;;;;;;;9.27;4.53;;;7.90;99.70;;;;;;5012083;28;20443;-64
2021/12/24 12:10:12;;;;;;;9.63;4.83;;;7.90;99.70;;;;;;5010169;28;20453;-64
2021/12/24 12:12:41;;;;;;;8.17;4.33;;;8.00;99.70;;;;;;5009639;28;20453;-64
2021/12/24 12:15:26;;;;;;;7.60;4.30;;;8.00;99.70;;;;;;5011754;28;20965;-67
2021/12/24 12:17:55;;;;;;;10.23;5.23;;;8.00;99.70;;;;;;5001890;28;20934;-64
2021/12/24 12:20:43;;;;;;;9.20;4.53;;;8.00;99.70;;;;;;5011814;28;20484;-63
2021/12/24 12:23:15;;;;;;;10.13;4.53;;;8.10;99.70;;;;;;5009824;28;20462;-64
2021/12/24 12:25:43;;;;;;;9.87;4.83;;;8.20;99.70;;;;;;5014023;28;20453;-66
2021/12/24 12:28:15;;;;;;;11.83;4.50;;;8.10;99.70;;;;;;5011302;28;20500;-65
2021/12/24 12:30:50;;;;;;;12.07;5.10;;;8.10;99.70;;;;;;5011596;28;20449;-64
2021/12/24 12:33:19;;;;;;;12.53;4.90;;;8.10;99.70;;;;;;5010794;28;20448;-64
2021/12/24 12:35:49;;;;;;;12.57;4.90;;;8.10;99.70;;;;;;5011714;28;20536;-63
2021/12/24 12:38:34;;;;;;;9.97;5.33;;;8.10;99.70;;;;;;5010901;28;20461;-65
2021/12/24 12:41:38;;;;;;;8.90;4.60;;;8.10;99.70;;;;;;5011243;28;20449;-64
2021/12/24 12:44:07;;;;;;;9.87;4.80;;;8.10;99.70;;;;;;5008266;28;20478;-64
2021/12/24 12:46:39;;;;;;;9.83;4.73;;;8.20;99.70;;;;;;5015426;28;20464;-63
2021/12/24 12:49:08;;;;;;;8.80;4.90;;;8.20;99.70;;;;;;5007734;28;20976;-64
2021/12/24 12:51:56;;;;;;;11.30;5.03;;;8.20;99.70;;;;;;5012849;28;20975;-62
2021/12/24 12:54:41;;;;;;;9.03;4.73;;;8.30;99.70;;;;;;5001967;28;20433;-64
2021/12/24 12:57:20;;;;;;;8.63;4.30;;;8.30;99.70;;;;;;5005550;28;20542;-63
2021/12/24 13:00:20;;;;;;;12.07;4.30;;;8.30;99.70;;;;;;5005330;28;20899;-66
2021/12/24 13:03:09;;;;;;;8.60;4.20;;;8.30;99.70;;;;;;5000956;28;20466;-62
2021/12/24 13:05:56;;;;;;;8.10;3.90;;;8.30;99.70;;;;;;5001182;28;20584;-64
2021/12/24 13:08:25;;;;;;;7.33;3.90;;;8.40;99.70;;;;;;4998945;28;20461;-63
2021/12/24 13:10:57;;;;;;;9.47;4.07;;;8.30;99.70;;;;;;5000902;28;20452;-66
2021/12/24 13:13:24;;;;;;;7.73;4.00;;;8.40;99.70;;;;;;5001508;28;20955;-64
2021/12/24 13:15:50;;;;;;;9.00;4.87;;;8.40;99.70;;;;;;5001303;28;20536;-63
2021/12/24 13:18:26;;;;;;;8.30;4.80;;;8.30;99.70;;;;;;4999635;28;20461;-63
2021/12/24 13:23:39;;;;;;;6.47;3.90;;;8.30;99.70;;;;;;5004530;28;20464;-64
2021/12/24 13:26:11;;;;;;;6.73;3.93;;;8.30;99.70;;;;;;5017927;28;20449;-62
2021/12/24 13:28:55;;;;;;;5.93;3.50;;;8.30;99.70;;;;;;5020593;28;20469;-63
2021/12/24 13:31:22;;;;;;;5.60;3.10;;;8.30;99.70;;;;;;5009019;28;20842;-65
2021/12/24 13:33:50;;;;;;;6.50;3.20;;;8.40;99.70;;;;;;5006732;28;20460;-63
2021/12/24 13:36:22;;;;;;;6.40;3.20;;;8.40;99.70;;;;;;5005452;28;20482;-62
2021/12/24 13:38:49;;;;;;;6.13;3.30;;;8.30;99.70;;;;;;5002025;28;20576;-64
2021/12/24 13:41:16;;;;;;;7.40;3.93;;;8.30;99.70;;;;;;5004527;28;20453;-64
2021/12/24 13:43:43;;;;;;;12.40;4.27;;;8.30;99.70;;;;;;5008344;28;20452;-63
2021/12/24 13:46:12;;;;;;;6.10;3.40;;;8.20;99.70;;;;;;5000966;28;20812;-64
2021/12/24 13:48:57;;;;;;;6.10;3.57;;;8.20;99.70;;;;;;4999305;28;20471;-66
2021/12/24 13:56:54;;;;;;;12.50;4.83;;;8.10;99.70;;;;;;5009436;28;20522;-62
2021/12/24 13:59:23;;;;;;;9.70;4.40;;;8.10;99.70;;;;;;5009988;28;20532;-65
2021/12/24 14:01:50;;;;;;;16.53;6.03;;;8.10;99.70;;;;;;5010899;28;20445;-62
2021/12/24 14:04:18;;;;;;;15.97;6.43;;;8.10;99.70;;;;;;5013163;28;20850;-66
2021/12/24 14:06:50;;;;;;;18.43;7.10;;;8.10;99.70;;;;;;5015791;28;20457;-64
2021/12/24 14:09:19;;;;;;;15.50;5.50;;;8.00;99.70;;;;;;5017909;28;20484;-63
2021/12/24 14:11:48;;;;;;;16.87;6.63;;;8.00;99.70;;;;;;5016656;28;20527;-64
2021/12/24 14:14:20;;;;;;;14.23;5.90;;;8.00;99.70;;;;;;5011107;28;20466;-63
2021/12/24 14:16:56;;;;;;;13.10;6.00;;;8.00;99.70;;;;;;5007819;28;21084;-63
2021/12/24 14:19:36;;;;;;;11.90;5.97;;;7.90;99.70;;;;;;5006509;28;20465;-66
2021/12/24 14:22:11;;;;;;;12.97;6.07;;;8.00;99.70;;;;;;5014514;28;20457;-63
2021/12/24 14:24:49;;;;;;;14.90;6.20;;;7.90;99.70;;;;;;5013923;28;20455;-64
2021/12/24 14:27:18;;;;;;;14.30;5.90;;;7.90;99.70;;;;;;5006534;28;20438;-63
2021/12/24 14:29:47;;;;;;;10.63;5.53;;;7.90;99.70;;;;;;5007937;28;20838;-65
2021/12/24 14:32:16;;;;;;;12.73;5.20;;;7.90;99.70;;;;;;5013356;28;20446;-64
2021/12/24 14:34:48;;;;;;;17.20;6.53;;;7.90;99.70;;;;;;5015234;28;20453;-63
2021/12/24 14:37:26;;;;;;;12.20;5.23;;;7.90;99.70;;;;;;5009124;28;20485;-65
2021/12/24 14:39:55;;;;;;;12.07;5.60;;;7.90;99.70;;;;;;5003580;28;20990;-62
2021/12/24 14:42:25;;;;;;;10.43;4.87;;;7.90;99.70;;;;;;5004333;28;20554;-63
2021/12/24 14:44:54;;;;;;;11.47;4.90;;;7.90;99.70;;;;;;5008936;28;20453;-63
2021/12/24 14:47:26;;;;;;;10.77;5.47;;;7.90;99.70;;;;;;5010486;28;20473;-63
2021/12/24 14:50:02;;;;;;;13.07;6.20;;;7.90;99.70;;;;;;5002252;28;20493;-66
2021/12/24 14:52:31;;;;;;;11.97;5.47;;;7.90;99.70;;;;;;5006680;28;20449;-61
2021/12/24 14:55:17;;;;;;;17.90;5.07;;;7.90;99.70;;;;;;5008183;28;20456;-66
2021/12/24 14:57:46;;;;;;;15.87;5.97;;;7.90;99.70;;;;;;4999347;28;20497;-67
2021/12/24 15:00:16;;;;;;;14.50;6.13;;;7.90;99.70;;;;;;5002512;28;20453;-64
2021/12/24 15:02:46;;;;;;;14.27;5.63;;;7.90;99.70;;;;;;5001917;28;20441;-66
2021/12/24 15:05:13;;;;;;;13.60;5.70;;;7.90;99.70;;;;;;5007665;28;20459;-63
2021/12/24 15:07:41;;;;;;;10.80;5.30;;;7.90;99.70;;;;;;5014207;28;20465;-68
2021/12/24 15:10:10;;;;;;;13.13;6.00;;;7.90;99.70;;;;;;5010771;28;20824;-66
2021/12/24 15:12:42;;;;;;;13.00;5.60;;;7.80;99.70;;;;;;5015054;28;20485;-63
2021/12/24 15:15:11;;;;;;;13.37;5.67;;;7.90;99.70;;;;;;5014372;28;20527;-63
2021/12/24 15:17:39;;;;;;;12.27;4.87;;;7.90;99.70;;;;;;5008491;28;20523;-68
2021/12/24 15:20:07;;;;;;;10.37;4.67;;;7.90;99.70;;;;;;5001379;28;20481;-65
2021/12/24 15:22:33;;;;;;;10.53;4.80;;;7.90;99.70;;;;;;5004536;28;20452;-63
2021/12/24 15:25:02;;;;;;;13.93;4.73;;;7.90;99.70;;;;;;5002210;28;20439;-65
2021/12/24 15:27:33;;;;;;;8.97;4.70;;;7.80;99.70;;;;;;5009818;28;20829;-64
2021/12/24 15:30:00;;;;;;;13.07;5.77;;;7.90;99.70;;;;;;5012465;28;21042;-62
2021/12/24 15:32:27;;;;;;;9.23;4.63;;;7.80;99.70;;;;;;5012504;28;20508;-64
2021/12/24 15:34:54;;;;;;;10.90;5.53;;;7.80;99.70;;;;;;5007868;28;20443;-60
2021/12/24 15:37:20;;;;;;;11.73;5.20;;;7.80;99.70;;;;;;5001661;28;20998;-63
2021/12/24 15:39:47;;;;;;;10.23;5.00;;;7.80;99.70;;;;;;5005650;28;20553;-63
2021/12/24 15:42:16;;;;;;;9.43;4.70;;;7.90;99.70;;;;;;5001165;28;20481;-61
2021/12/24 15:44:47;;;;;;;10.70;5.30;;;7.90;99.70;;;;;;5004646;28;20551;-65
2021/12/24 15:47:14;;;;;;;11.10;5.07;;;7.90;99.70;;;;;;5002354;28;20442;-63
2021/12/24 15:49:40;;;;;;;9.60;4.63;;;7.80;99.70;;;;;;5002434;28;20481;-63
2021/12/24 15:52:08;;;;;;;14.53;5.30;;;7.90;99.70;;;;;;5006847;28;20454;-63
2021/12/24 15:54:35;;;;;;;13.60;5.80;;;7.80;99.70;;;;;;5009516;28;20454;-64
2021/12/24 15:57:03;;;;;;;13.90;6.60;;;7.80;99.70;;;;;;5019963;28;20564;-64
2021/12/24 15:59:33;;;;;;;15.70;6.87;;;7.80;99.70;;;;;;5009662;28;20470;-66
2021/12/24 16:02:00;;;;;;;14.07;6.70;;;7.80;99.70;;;;;;5007520;28;20456;-64
2021/12/24 16:04:27;;;;;;;15.47;8.07;;;7.70;99.70;;;;;;5010099;28;20501;-64
2021/12/24 16:06:54;;;;;;;20.93;10.70;;;7.70;99.70;;;;;;5010612;28;20453;-63
2021/12/24 16:09:21;;;;;;;14.60;7.67;;;7.80;99.70;;;;;;5012007;28;20800;-64
2021/12/24 16:11:49;;;;;;;18.13;9.03;;;7.80;99.70;;;;;;5011517;28;20449;-63
2021/12/24 16:14:16;;;;;;;17.50;7.93;;;7.80;99.70;;;;;;5012424;28;20449;-65
2021/12/24 16:16:45;;;;;;;15.67;7.53;;;7.70;99.70;;;;;;5010705;28;20481;-63
2021/12/24 16:19:12;;;;;;;15.13;8.30;;;7.70;99.70;;;;;;5007296;28;20469;-65
2021/12/24 16:21:39;;;;;;;18.77;9.57;;;7.70;99.70;;;;;;5003827;28;20492;-66
2021/12/24 16:24:07;;;;;;;28.10;12.97;;;7.60;99.70;;;;;;5001198;28;20446;-66
2021/12/24 16:26:35;;;;;;;26.20;13.07;;;7.60;99.70;;;;;;5001152;28;21022;-63
2021/12/24 16:29:02;;;;;;;15.50;9.00;;;7.60;99.70;;;;;;5000270;28;20469;-63
2021/12/24 16:31:29;;;;;;;17.83;8.30;;;7.70;99.70;;;;;;5001215;28;20442;-64
2021/12/24 16:33:57;;;;;;;16.87;8.57;;;7.70;99.70;;;;;;5002276;28;20443;-64
2021/12/24 16:36:23;;;;;;;18.10;8.70;;;7.60;99.70;;;;;;5002328;28;20478;-61
2021/12/24 16:38:50;;;;;;;17.33;8.10;;;7.50;99.70;;;;;;5009969;28;20885;-64
2021/12/24 16:41:17;;;;;;;16.13;7.60;;;7.40;99.70;;;;;;5009229;28;20449;-64
2021/12/24 16:43:44;;;;;;;13.27;7.23;;;7.40;99.70;;;;;;5021905;28;20869;-63
2021/12/24 16:46:10;;;;;;;12.20;7.30;;;7.40;99.70;;;;;;5015993;28;20461;-63
2021/12/24 16:48:37;;;;;;;14.70;7.50;;;7.50;99.70;;;;;;5013942;28;20885;-68
2021/12/24 16:51:07;;;;;;;14.03;7.97;;;7.50;99.70;;;;;;5020150;28;20461;-64
2021/12/24 16:53:33;;;;;;;13.27;7.83;;;7.50;99.70;;;;;;5004493;28;20452;-65
2021/12/24 16:56:00;;;;;;;16.10;9.10;;;7.50;99.70;;;;;;5010252;28;20492;-62
2021/12/24 16:58:27;;;;;;;13.40;7.53;;;7.50;99.70;;;;;;5019142;28;20473;-62
2021/12/24 17:00:57;;;;;;;17.13;8.77;;;7.50;99.70;;;;;;5031513;28;20456;-65
2021/12/24 17:03:24;;;;;;;18.27;8.10;;;7.50;99.70;;;;;;5007961;28;20458;-64
2021/12/24 17:05:51;;;;;;;18.07;8.87;;;7.50;99.70;;;;;;5011859;28;20441;-62
2021/12/24 17:08:19;;;;;;;18.60;7.73;;;7.50;99.70;;;;;;5010525;28;20484;-64
2021/12/24 17:10:47;;;;;;;12.87;6.93;;;7.50;99.70;;;;;;5011639;28;20441;-64
2021/12/24 17:13:13;;;;;;;16.53;7.30;;;7.50;99.70;;;;;;5010966;28;20450;-64
2021/12/24 17:15:41;;;;;;;16.53;7.20;;;7.50;99.70;;;;;;5011649;28;20450;-64
2021/12/24 17:18:08;;;;;;;19.90;8.40;;;7.50;99.70;;;;;;5010317;28;20489;-64
2021/12/24 17:20:34;;;;;;;20.60;9.90;;;7.50;99.70;;;;;;5011454;28;20946;-64
2021/12/24 17:23:02;;;;;;;19.37;8.70;;;7.60;99.70;;;;;;5010845;28;20446;-66
2021/12/24 17:25:30;;;;;;;17.13;8.57;;;7.50;99.70;;;;;;5011099;28;20453;-64
2021/12/24 17:27:56;;;;;;;18.80;9.10;;;7.50;99.70;;;;;;5010322;28;20979;-63
2021/12/24 17:30:24;;;;;;;21.67;9.43;;;7.50;99.70;;;;;;5011368;28;20454;-63
2021/12/24 17:32:51;;;;;;;19.90;8.87;;;7.50;99.70;;;;;;5011150;28;20541;-64
2021/12/24 17:35:18;;;;;;;17.53;8.90;;;7.40;99.70;;;;;;5011341;28;20457;-66
2021/12/24 17:37:45;;;;;;;15.30;7.73;;;7.40;99.70;;;;;;5010610;28;20539;-64
2021/12/24 17:40:13;;;;;;;14.03;7.07;;;7.40;99.70;;;;;;5010076;28;20444;-64
2021/12/24 17:42:42;;;;;;;13.80;6.63;;;7.40;99.70;;;;;;4991243;28;20443;-62
2021/12/24 17:45:10;;;;;;;17.47;7.23;;;7.40;99.70;;;;;;4991510;28;20446;-64
2021/12/24 17:47:38;;;;;;;20.77;9.53;;;7.40;99.70;;;;;;5009810;28;20445;-63
2021/12/24 17:50:06;;;;;;;23.23;10.00;;;7.40;99.70;;;;;;5010680;28;20561;-64
2021/12/24 17:52:33;;;;;;;21.13;9.57;;;7.50;99.70;;;;;;5018219;28;20465;-64
2021/12/24 17:55:00;;;;;;;14.83;7.10;;;7.40;99.70;;;;;;5027018;28;20471;-63
2021/12/24 17:57:26;;;;;;;15.80;6.70;;;7.50;99.70;;;;;;5033750;28;20534;-65
2021/12/24 17:59:56;;;;;;;16.37;7.10;;;7.50;99.70;;;;;;4994760;28;20870;-64
2021/12/24 18:02:23;;;;;;;14.53;7.00;;;7.40;99.70;;;;;;4996098;28;20497;-63
2021/12/24 18:04:50;;;;;;;15.97;8.00;;;7.40;99.70;;;;;;5022571;28;20442;-66
2021/12/24 18:07:16;;;;;;;17.43;8.87;;;7.40;99.70;;;;;;5030164;28;20436;-64
2021/12/24 18:09:43;;;;;;;21.50;9.53;;;7.40;99.70;;;;;;5015939;28;20473;-63
2021/12/24 18:12:11;;;;;;;19.53;8.70;;;7.40;99.70;;;;;;5014565;28;20453;-63
2021/12/24 18:14:39;;;;;;;18.00;7.67;;;7.40;99.70;;;;;;5014158;28;20457;-64
2021/12/24 18:17:08;;;;;;;17.07;6.90;;;7.40;99.70;;;;;;5013837;28;20484;-64
2021/12/24 18:19:34;;;;;;;66.80;31.63;;;7.40;99.70;;;;;;5013886;28;20480;-64